createdAt,value
2022-10-15T00:00:45.621Z,100202.47
2022-10-15T00:03:12.540Z,100207.34
2022-10-15T00:05:40.670Z,100199.78
2022-10-15T00:08:12.454Z,100204.63
2022-10-15T00:10:39.669Z,100199.53
2022-10-15T00:13:06.886Z,100197.69
2022-10-15T00:15:37.459Z,100194.22
2022-10-15T00:18:14.761Z,100191.59
2022-10-15T00:20:42.456Z,100187.50
2022-10-15T00:23:09.231Z,100178.50
2022-10-15T00:25:36.336Z,100182.16
2022-10-15T00:28:03.088Z,100175.03
2022-10-15T00:30:30.019Z,100167.28
2022-10-15T00:32:56.783Z,100163.66
2022-10-15T00:35:23.607Z,100161.00
2022-10-15T00:37:50.454Z,100161.63
2022-10-15T00:40:17.466Z,100152.88
2022-10-15T00:42:44.193Z,100145.13
2022-10-15T00:45:14.443Z,100136.56
2022-10-15T00:47:46.525Z,100133.09
2022-10-15T00:50:13.235Z,100128.63
2022-10-15T00:52:46.763Z,100124.16
2022-10-15T00:55:29.745Z,100117.84
2022-10-15T00:58:01.048Z,100114.38
2022-10-15T01:00:28.141Z,100121.31
2022-10-15T01:02:55.019Z,100115.38
2022-10-15T01:05:22.669Z,100119.44
2022-10-15T01:07:49.549Z,100108.84
2022-10-15T01:10:17.766Z,100113.31
2022-10-15T01:12:56.298Z,100108.84
2022-10-15T01:15:28.365Z,100108.03
2022-10-15T01:18:20.972Z,100098.69
2022-10-15T01:21:18.647Z,100086.63
2022-10-15T01:24:23.154Z,100093.16
2022-10-15T01:27:11.473Z,100088.22
2022-10-15T01:30:00.059Z,100097.56
2022-10-15T01:32:38.089Z,100095.09
2022-10-15T01:35:32.931Z,100073.50
2022-10-15T01:38:12.744Z,100078.19
2022-10-15T01:41:14.757Z,100061.50
2022-10-15T01:43:57.222Z,100061.88
2022-10-15T01:46:32.251Z,100052.13
2022-10-15T01:49:01.243Z,100057.22
2022-10-15T01:51:30.223Z,100049.28
2022-10-15T01:53:58.724Z,100035.66
2022-10-15T01:56:27.486Z,100026.91
2022-10-15T01:58:56.585Z,100019.97
2022-10-15T02:01:23.650Z,100012.22
2022-10-15T02:03:52.712Z,100011.63
2022-10-15T02:06:37.228Z,100010.97
2022-10-15T02:09:53.314Z,100008.34
2022-10-15T02:12:25.996Z,99997.13
2022-10-15T02:15:11.013Z,100005.69
2022-10-15T02:17:51.254Z,99994.69
2022-10-15T02:20:24.967Z,99989.59
2022-10-15T02:23:24.525Z,99981.84
2022-10-15T02:25:53.089Z,99976.97
2022-10-15T02:28:21.567Z,99979.59
2022-10-15T02:30:53.046Z,99960.28
2022-10-15T02:33:21.228Z,99964.75
2022-10-15T02:35:50.498Z,99966.56
2022-10-15T02:38:23.284Z,99964.94
2022-10-15T02:40:50.881Z,99965.97
2022-10-15T02:43:21.559Z,99963.31
2022-10-15T02:45:49.468Z,99967.56
2022-10-15T02:48:17.464Z,99960.47
2022-10-15T02:50:44.277Z,99961.69
2022-10-15T02:53:11.168Z,99956.59
2022-10-15T02:55:38.242Z,99947.03
2022-10-15T02:58:10.741Z,99951.69
2022-10-15T03:00:37.613Z,99937.22
2022-10-15T03:03:05.036Z,99944.34
2022-10-15T03:05:32.040Z,99938.44
2022-10-15T03:08:00.090Z,99942.91
2022-10-15T03:10:27.174Z,99929.69
2022-10-15T03:12:54.040Z,99940.66
2022-10-15T03:15:20.939Z,99931.09
2022-10-15T03:17:47.751Z,99944.47
2022-10-15T03:20:14.544Z,99941.41
2022-10-15T03:22:41.327Z,99937.13
2022-10-15T03:25:08.255Z,99941.16
2022-10-15T03:27:35.041Z,99942.81
2022-10-15T03:30:01.809Z,99947.28
2022-10-15T03:32:30.292Z,99940.16
2022-10-15T03:34:58.792Z,99941.00
2022-10-15T03:37:25.762Z,99941.59
2022-10-15T03:39:52.883Z,99932.66
2022-10-15T03:42:19.687Z,99935.94
2022-10-15T03:44:46.474Z,99929.63
2022-10-15T03:47:13.221Z,99917.88
2022-10-15T03:49:39.981Z,99920.50
2022-10-15T03:52:06.847Z,99908.94
2022-10-15T03:54:33.657Z,99916.25
2022-10-15T03:57:00.784Z,99910.13
2022-10-15T03:59:27.771Z,99911.59
2022-10-15T04:01:54.521Z,99902.84
2022-10-15T04:04:21.418Z,99891.47
2022-10-15T04:06:48.130Z,99892.28
2022-10-15T04:09:15.132Z,99891.47
2022-10-15T04:11:42.060Z,99887.00
2022-10-15T04:14:08.812Z,99884.34
2022-10-15T04:16:35.706Z,99869.31
2022-10-15T04:19:04.168Z,99865.22
2022-10-15T04:21:32.975Z,99864.41
2022-10-15T04:23:59.937Z,99860.34
2022-10-15T04:26:27.130Z,99872.72
2022-10-15T04:28:54.020Z,99869.28
2022-10-15T04:31:20.929Z,99879.84
2022-10-15T04:33:51.171Z,99876.19
2022-10-15T04:39:06.921Z,99856.69
2022-10-15T04:41:35.781Z,99859.94
2022-10-15T04:44:02.558Z,99856.47
2022-10-15T04:46:29.375Z,99861.97
2022-10-15T04:48:58.019Z,99856.69
2022-10-15T04:51:26.548Z,99843.47
2022-10-15T04:53:53.494Z,99844.50
2022-10-15T04:56:21.643Z,99840.03
2022-10-15T04:58:49.546Z,99843.47
2022-10-15T05:01:19.030Z,99837.97
2022-10-15T05:03:48.529Z,99837.78
2022-10-15T05:06:18.095Z,99838.44
2022-10-15T05:08:45.745Z,99840.03
2022-10-15T05:11:16.491Z,99846.97
2022-10-15T05:13:43.902Z,99842.50
2022-10-15T05:16:11.926Z,99846.97
2022-10-15T05:18:39.558Z,99843.31
2022-10-15T05:21:07.372Z,99848.59
2022-10-15T05:23:34.205Z,99835.56
2022-10-15T05:26:02.234Z,99841.06
2022-10-15T05:28:30.089Z,99836.78
2022-10-15T05:30:57.620Z,99834.16
2022-10-15T05:33:24.430Z,99842.25
2022-10-15T05:35:51.300Z,99837.78
2022-10-15T05:38:18.074Z,99832.50
2022-10-15T05:40:49.549Z,99834.16
2022-10-15T05:43:16.371Z,99833.16
2022-10-15T05:45:43.115Z,99840.25
2022-10-15T05:48:10.877Z,99836.78
2022-10-15T05:50:37.744Z,99837.63
2022-10-15T05:53:04.560Z,99843.91
2022-10-15T05:55:31.473Z,99840.84
2022-10-15T05:58:11.928Z,99845.31
2022-10-15T06:00:39.886Z,99848.59
2022-10-15T06:03:06.688Z,99846.78
2022-10-15T06:05:33.586Z,99839.66
2022-10-15T06:08:00.289Z,99840.50
2022-10-15T06:10:28.690Z,99837.63
2022-10-15T06:12:55.737Z,99842.53
2022-10-15T06:15:22.656Z,99844.19
2022-10-15T06:17:53.298Z,99851.06
2022-10-15T06:20:20.203Z,99836.03
2022-10-15T06:22:47.104Z,99851.88
2022-10-15T06:25:14.216Z,99840.72
2022-10-15T06:27:40.960Z,99836.25
2022-10-15T06:30:08.895Z,99828.31
2022-10-15T06:32:35.628Z,99830.75
2022-10-15T06:35:02.585Z,99838.50
2022-10-15T06:37:30.099Z,99839.31
2022-10-15T06:39:56.914Z,99842.56
2022-10-15T06:42:23.653Z,99836.25
2022-10-15T06:44:50.373Z,99842.38
2022-10-15T06:47:17.183Z,99845.00
2022-10-15T06:49:43.912Z,99845.63
2022-10-15T06:52:10.690Z,99833.03
2022-10-15T06:54:37.434Z,99833.84
2022-10-15T06:57:04.171Z,99831.00
2022-10-15T06:59:31.033Z,99828.19
2022-10-15T07:01:57.807Z,99827.97
2022-10-15T07:04:24.674Z,99836.53
2022-10-15T07:06:51.445Z,99829.22
2022-10-15T07:09:18.324Z,99839.81
2022-10-15T07:14:57.927Z,99840.59
2022-10-15T07:17:24.660Z,99833.28
2022-10-15T07:19:51.639Z,99834.09
2022-10-15T07:22:18.400Z,99839.63
2022-10-15T07:24:45.267Z,99833.91
2022-10-15T07:27:19.498Z,99846.78
2022-10-15T07:29:46.506Z,99850.00
2022-10-15T07:32:13.619Z,99852.47
2022-10-15T07:34:40.370Z,99848.63
2022-10-15T07:37:07.109Z,99860.44
2022-10-15T07:39:35.575Z,99858.59
2022-10-15T07:42:05.871Z,99866.31
2022-10-15T07:44:32.643Z,99872.06
2022-10-15T07:47:01.851Z,99875.50
2022-10-15T07:49:28.601Z,99879.38
2022-10-15T07:51:55.385Z,99878.78
2022-10-15T07:54:22.198Z,99881.84
2022-10-15T07:56:49.492Z,99890.00
2022-10-15T07:59:16.256Z,99880.88
2022-10-15T08:01:45.011Z,99885.94
2022-10-15T08:04:13.954Z,99888.81
2022-10-15T08:06:40.691Z,99886.97
2022-10-15T08:09:07.483Z,99891.66
2022-10-15T08:11:34.334Z,99894.75
2022-10-15T08:14:01.177Z,99893.75
2022-10-15T08:16:28.009Z,99904.09
2022-10-15T08:18:54.781Z,99901.06
2022-10-15T08:21:21.593Z,99896.19
2022-10-15T08:23:48.362Z,99897.44
2022-10-15T08:26:15.134Z,99906.59
2022-10-15T08:28:42.169Z,99903.97
2022-10-15T08:31:09.043Z,99906.84
2022-10-15T08:33:37.289Z,99902.59
2022-10-15T08:36:08.002Z,99900.56
2022-10-15T08:38:35.456Z,99901.78
2022-10-15T08:41:06.166Z,99899.53
2022-10-15T08:43:38.977Z,99900.56
2022-10-15T08:46:10.425Z,99899.94
2022-10-15T08:48:42.943Z,99905.88
2022-10-15T08:51:22.036Z,99896.50
2022-10-15T08:53:58.090Z,99904.63
2022-10-15T08:56:30.509Z,99896.91
2022-10-15T08:59:17.669Z,99903.81
2022-10-15T09:02:21.116Z,99901.16
2022-10-15T09:05:10.682Z,99909.31
2022-10-15T09:07:45.042Z,99912.97
2022-10-15T09:10:49.928Z,99915.63
2022-10-15T09:13:30.840Z,99916.03
2022-10-15T09:16:02.585Z,99913.34
2022-10-15T09:18:38.039Z,99914.19
2022-10-15T09:21:05.861Z,99919.47
2022-10-15T09:23:33.784Z,99924.75
2022-10-15T09:26:09.359Z,99916.97
2022-10-15T09:28:46.478Z,99920.44
2022-10-15T09:31:18.123Z,99915.75
2022-10-15T09:34:00.390Z,99921.25
2022-10-15T09:36:42.058Z,99916.31
2022-10-15T09:39:18.080Z,99918.34
2022-10-15T09:42:00.375Z,99906.09
2022-10-15T09:44:34.204Z,99917.91
2022-10-15T09:47:01.225Z,99910.13
2022-10-15T09:49:36.237Z,99913.97
2022-10-15T09:52:19.135Z,99917.03
2022-10-15T09:55:02.067Z,99912.94
2022-10-15T09:57:34.304Z,99914.94
2022-10-15T10:00:08.013Z,99918.81
2022-10-15T10:02:36.577Z,99925.09
2022-10-15T10:05:39.479Z,99928.97
2022-10-15T10:08:27.376Z,99933.44
2022-10-15T10:10:57.896Z,99934.41
2022-10-15T10:13:34.636Z,99936.44
2022-10-15T10:16:06.449Z,99922.34
2022-10-15T10:18:34.750Z,99923.09
2022-10-15T10:21:05.941Z,99929.38
2022-10-15T10:23:43.139Z,99924.84
2022-10-15T10:26:12.643Z,99923.38
2022-10-15T10:28:46.283Z,99935.22
2022-10-15T10:31:16.934Z,99935.16
2022-10-15T10:33:48.874Z,99926.78
2022-10-15T10:36:32.105Z,99933.28
2022-10-15T10:39:15.206Z,99938.16
2022-10-15T10:41:53.037Z,99937.94
2022-10-15T10:44:23.526Z,99930.34
2022-10-15T10:47:27.664Z,99936.28
2022-10-15T10:50:02.700Z,99930.50
2022-10-15T10:52:48.410Z,99930.47
2022-10-15T10:55:25.581Z,99936.75
2022-10-15T10:58:01.345Z,99933.66
2022-10-15T11:00:41.334Z,99938.53
2022-10-15T11:03:33.097Z,99941.78
2022-10-15T11:06:14.740Z,99940.97
2022-10-15T11:09:20.448Z,99934.63
2022-10-15T11:12:11.893Z,99946.06
2022-10-15T11:15:17.652Z,99940.16
2022-10-15T11:17:57.460Z,99923.81
2022-10-15T11:20:49.769Z,99930.41
2022-10-15T11:23:59.274Z,99930.41
2022-10-15T11:27:10.749Z,99934.66
2022-10-15T11:29:51.655Z,99936.50
2022-10-15T11:33:06.146Z,99933.66
2022-10-15T11:35:52.906Z,99942.22
2022-10-15T11:38:54.951Z,99940.59
2022-10-15T11:41:35.313Z,99938.97
2022-10-15T12:17:34.011Z,99922.91
2022-10-15T12:20:09.268Z,99919.41
2022-10-15T12:22:44.277Z,99912.47
2022-10-15T12:25:42.979Z,99896.72
2022-10-15T12:28:27.653Z,99915.78
2022-10-15T12:30:59.576Z,99907.56
2022-10-15T12:33:41.556Z,99900.19
2022-10-15T12:36:32.606Z,99903.00
2022-10-15T12:42:23.660Z,99912.84
2022-10-15T12:45:00.377Z,99897.69
2022-10-15T12:47:49.458Z,99892.16
2022-10-15T12:50:42.543Z,99888.91
2022-10-15T12:53:45.319Z,99888.06
2022-10-15T12:56:24.622Z,99886.69
2022-10-15T12:58:57.011Z,99889.34
2022-10-15T13:01:28.887Z,99887.50
2022-10-15T13:04:16.164Z,99877.22
2022-10-15T13:06:45.422Z,99880.72
2022-10-15T13:12:32.727Z,99876.78
2022-10-15T13:15:08.247Z,99877.97
2022-10-15T13:17:45.181Z,99872.41
2022-10-15T13:20:34.953Z,99864.00
2022-10-15T13:23:31.440Z,99867.25
2022-10-15T13:26:27.916Z,99875.84
2022-10-15T13:29:19.956Z,99877.31
2022-10-15T13:31:57.291Z,99882.03
2022-10-15T13:34:31.289Z,99863.63
2022-10-15T13:37:00.803Z,99870.78
2022-10-15T13:39:35.682Z,99868.13
2022-10-15T13:42:17.700Z,99865.72
2022-10-15T13:44:56.119Z,99859.56
2022-10-15T13:47:25.260Z,99870.44
2022-10-15T13:49:52.204Z,99864.53
2022-10-15T13:52:19.204Z,99869.03
2022-10-15T13:54:47.208Z,99875.16
2022-10-15T13:57:18.237Z,99871.91
2022-10-15T13:59:46.570Z,99870.88
2022-10-15T14:02:14.784Z,99866.38
2022-10-15T14:04:41.754Z,99854.47
2022-10-15T14:07:37.731Z,99860.38
2022-10-15T14:10:04.925Z,99853.78
2022-10-15T14:12:33.635Z,99851.75
2022-10-15T14:15:39.103Z,99847.16
2022-10-15T14:18:06.117Z,99854.94
2022-10-15T14:20:33.051Z,99852.63
2022-10-15T14:23:00.155Z,99866.31
2022-10-15T14:25:28.462Z,99864.47
2022-10-15T14:27:55.661Z,99871.84
2022-10-15T14:30:30.721Z,99861.00
2022-10-15T14:32:57.709Z,99877.53
2022-10-15T14:35:33.924Z,99872.47
2022-10-15T14:38:03.361Z,99866.31
2022-10-15T14:40:32.195Z,99865.50
2022-10-15T14:43:08.516Z,99860.41
2022-10-15T14:46:01.414Z,99878.81
2022-10-15T14:48:34.170Z,99872.31
2022-10-15T14:51:03.178Z,99867.00
2022-10-15T14:53:45.963Z,99876.22
2022-10-15T14:56:15.884Z,99874.59
2022-10-15T14:58:52.275Z,99874.00
2022-10-15T15:01:21.090Z,99882.22
2022-10-15T15:03:53.675Z,99891.19
2022-10-15T15:06:21.222Z,99894.09
2022-10-15T15:08:48.152Z,99884.69
2022-10-15T15:11:19.553Z,99897.03
2022-10-15T15:13:46.865Z,99894.44
2022-10-15T15:16:15.758Z,99896.72
2022-10-15T15:18:44.120Z,99910.69
2022-10-15T15:21:21.866Z,99908.22
2022-10-15T15:23:49.235Z,99910.53
2022-10-15T15:26:16.180Z,99911.19
2022-10-15T15:28:43.048Z,99924.53
2022-10-15T15:31:16.510Z,99917.00
2022-10-15T15:33:43.436Z,99936.84
2022-10-15T15:36:13.267Z,99930.56
2022-10-15T15:38:40.577Z,99938.97
2022-10-15T15:41:19.326Z,99935.50
2022-10-15T15:43:47.224Z,99934.09
2022-10-15T15:46:14.739Z,99932.84
2022-10-15T15:48:41.491Z,99929.38
2022-10-15T15:51:25.969Z,99924.50
2022-10-15T15:53:52.821Z,99928.00
2022-10-15T15:56:19.951Z,99926.63
2022-10-15T15:58:48.608Z,99921.50
2022-10-15T16:01:21.494Z,99919.06
2022-10-15T16:03:48.352Z,99915.81
2022-10-15T16:06:15.260Z,99917.66
2022-10-15T16:08:42.157Z,99909.94
2022-10-15T16:11:08.991Z,99915.91
2022-10-15T16:13:35.984Z,99920.84
2022-10-15T16:16:02.849Z,99924.97
2022-10-15T16:18:29.732Z,99925.16
2022-10-15T16:20:56.658Z,99933.13
2022-10-15T16:23:33.796Z,99925.00
2022-10-15T16:26:00.507Z,99922.78
2022-10-15T16:28:27.363Z,99921.97
2022-10-15T16:30:54.213Z,99916.66
2022-10-15T16:33:30.174Z,99917.66
2022-10-15T16:35:56.875Z,99911.75
2022-10-15T16:38:23.607Z,99913.81
2022-10-15T16:41:01.762Z,99912.38
2022-10-15T16:43:40.953Z,99909.16
2022-10-15T16:46:07.800Z,99907.94
2022-10-15T16:48:34.886Z,99913.47
2022-10-15T16:51:04.714Z,99918.59
2022-10-15T16:53:37.909Z,99911.28
2022-10-15T16:56:15.398Z,99910.66
2022-10-15T16:58:42.525Z,99906.00
2022-10-15T17:01:13.036Z,99910.91
2022-10-15T17:03:42.802Z,99907.06
2022-10-15T17:06:15.418Z,99941.34
2022-10-15T17:08:48.691Z,99925.66
2022-10-15T17:11:20.329Z,99934.81
2022-10-15T17:13:48.274Z,99927.69
2022-10-15T17:16:25.598Z,99940.94
2022-10-15T17:18:53.407Z,99948.09
2022-10-15T17:21:22.811Z,99959.16
2022-10-15T17:23:52.655Z,99961.63
2022-10-15T17:26:23.172Z,99965.50
2022-10-15T17:28:51.177Z,99966.56
2022-10-15T17:31:21.428Z,99961.66
2022-10-15T17:33:49.216Z,99965.34
2022-10-15T17:36:18.865Z,99968.00
2022-10-15T17:38:45.780Z,99969.84
2022-10-15T17:41:15.789Z,99975.72
2022-10-15T17:43:42.703Z,99985.31
2022-10-15T17:46:14.943Z,99977.34
2022-10-15T17:48:42.268Z,99987.16
2022-10-15T17:51:11.988Z,99991.69
2022-10-15T17:53:44.157Z,99989.03
2022-10-15T17:56:19.999Z,99994.31
2022-10-15T17:58:47.339Z,99993.50
2022-10-15T18:01:33.788Z,99995.97
2022-10-15T18:04:07.391Z,99988.19
2022-10-15T18:06:34.648Z,99996.97
2022-10-15T18:09:01.597Z,99997.78
2022-10-15T18:11:32.422Z,99992.69
2022-10-15T18:13:59.590Z,99992.69
2022-10-15T18:16:26.920Z,99998.00
2022-10-15T18:18:54.966Z,100001.47
2022-10-15T18:21:24.858Z,99995.53
2022-10-15T18:23:51.950Z,99999.22
2022-10-15T18:26:21.379Z,99998.41
2022-10-15T18:28:50.817Z,100000.44
2022-10-15T18:31:18.370Z,100007.59
2022-10-15T18:33:48.732Z,100008.84
2022-10-15T18:36:18.918Z,100011.47
2022-10-15T18:38:45.680Z,100009.22
2022-10-15T18:41:28.011Z,100005.56
2022-10-15T18:44:00.042Z,100006.19
2022-10-15T18:46:31.025Z,99999.63
2022-10-15T18:48:58.144Z,100006.78
2022-10-15T18:51:40.217Z,100004.13
2022-10-15T18:54:14.601Z,100002.50
2022-10-15T18:56:41.777Z,100008.22
2022-10-15T18:59:08.797Z,100012.91
2022-10-15T19:01:42.013Z,100018.41
2022-10-15T19:04:14.778Z,100022.50
2022-10-15T19:06:44.573Z,100020.84
2022-10-15T19:09:19.644Z,100025.72
2022-10-15T19:11:48.624Z,100024.53
2022-10-15T19:14:16.049Z,100021.25
2022-10-15T19:16:47.083Z,100024.31
2022-10-15T19:19:20.544Z,100022.50
2022-10-15T19:21:48.611Z,100025.16
2022-10-15T19:24:17.093Z,100024.31
2022-10-15T19:26:44.345Z,100016.13
2022-10-15T19:29:11.394Z,100017.38
2022-10-15T19:31:47.013Z,100015.13
2022-10-15T19:34:14.619Z,100007.16
2022-10-15T19:36:50.961Z,100008.22
2022-10-15T19:39:24.967Z,100004.75
2022-10-15T19:41:53.216Z,100009.63
2022-10-15T19:44:25.670Z,100003.91
2022-10-15T19:46:53.281Z,100004.53
2022-10-15T19:49:20.138Z,100005.97
2022-10-15T19:51:48.585Z,100014.72
2022-10-15T19:54:16.368Z,100011.28
2022-10-15T19:56:43.299Z,100007.19
2022-10-15T19:59:11.425Z,100016.97
2022-10-15T20:01:38.482Z,100007.81
2022-10-15T20:04:07.118Z,100011.47
2022-10-15T20:06:36.416Z,100016.78
2022-10-15T20:09:04.518Z,100019.59
2022-10-15T20:11:31.777Z,100017.75
2022-10-15T20:13:59.975Z,100018.78
2022-10-15T20:16:27.574Z,100018.19
2022-10-15T20:18:57.239Z,100016.97
2022-10-15T20:21:24.227Z,100011.66
2022-10-15T20:23:51.065Z,100021.66
2022-10-15T20:26:18.061Z,100022.47
2022-10-15T20:28:47.163Z,100019.81
2022-10-15T20:31:16.737Z,100020.63
2022-10-15T20:33:44.726Z,100023.09
2022-10-15T20:36:15.390Z,100022.88
2022-10-15T20:38:44.453Z,100022.28
2022-10-15T20:41:16.244Z,100033.91
2022-10-15T20:43:45.203Z,100028.97
2022-10-15T20:46:21.959Z,100037.56
2022-10-15T20:48:50.285Z,100035.31
2022-10-15T20:51:19.081Z,100032.47
2022-10-15T20:53:46.567Z,100041.03
2022-10-15T20:56:14.114Z,100045.28
2022-10-15T20:58:41.003Z,100040.22
2022-10-15T21:01:08.172Z,100042.03
2022-10-15T21:03:34.989Z,100047.94
2022-10-15T21:06:01.912Z,100047.94
2022-10-15T21:08:28.801Z,100050.41
2022-10-15T21:11:02.942Z,100050.41
2022-10-15T21:13:34.503Z,100059.00
2022-10-15T21:16:03.927Z,100052.47
2022-10-15T21:18:32.062Z,100060.44
2022-10-15T21:21:10.106Z,100063.50
2022-10-15T21:23:38.478Z,100072.47
2022-10-15T21:26:06.576Z,100065.34
2022-10-15T21:28:34.732Z,100071.63
2022-10-15T21:31:10.339Z,100072.63
2022-10-15T21:33:37.862Z,100076.31
2022-10-15T21:36:24.284Z,100078.16
2022-10-15T21:38:59.586Z,100083.66
2022-10-15T21:41:28.642Z,100083.66
2022-10-15T21:43:55.438Z,100085.28
2022-10-15T21:46:23.045Z,100082.84
2022-10-15T21:48:50.284Z,100091.19
2022-10-15T21:51:20.082Z,100087.94
2022-10-15T21:53:47.564Z,100087.72
2022-10-15T21:56:14.811Z,100097.31
2022-10-15T21:58:43.140Z,100092.22
2022-10-15T22:01:22.468Z,100098.31
2022-10-15T22:03:51.290Z,100095.06
2022-10-15T22:06:21.366Z,100098.75
2022-10-15T22:08:50.638Z,100104.88
2022-10-15T22:11:23.118Z,100100.38
2022-10-15T22:13:56.652Z,100107.50
2022-10-15T22:16:25.624Z,100095.06
2022-10-15T22:18:53.626Z,100095.91
2022-10-15T22:21:25.165Z,100108.72
2022-10-15T22:23:57.164Z,100098.34
2022-10-15T22:26:29.090Z,100098.13
2022-10-15T22:28:57.789Z,100099.75
2022-10-15T22:31:25.023Z,100097.94
2022-10-15T22:33:51.893Z,100106.50
2022-10-15T22:36:23.860Z,100100.97
2022-10-15T22:41:44.565Z,100103.03
2022-10-15T22:44:16.937Z,100102.22
2022-10-15T22:46:47.501Z,100108.72
2022-10-15T22:49:14.472Z,100107.13
2022-10-15T22:51:41.649Z,100108.94
2022-10-15T22:54:08.501Z,100109.97
2022-10-15T22:56:35.377Z,100110.78
2022-10-15T22:59:02.198Z,100119.56
2022-10-15T23:01:31.336Z,100118.31
2022-10-15T23:04:01.770Z,100113.00
2022-10-15T23:06:29.836Z,100125.25
2022-10-15T23:08:58.294Z,100129.75
2022-10-15T23:11:30.624Z,100130.75
2022-10-15T23:13:59.985Z,100130.97
2022-10-15T23:16:29.886Z,100128.50
2022-10-15T23:19:02.128Z,100133.63
2022-10-15T23:21:40.843Z,100138.72
2022-10-15T23:24:08.177Z,100136.06
2022-10-15T23:26:35.393Z,100124.63
2022-10-15T23:29:04.417Z,100126.28
2022-10-15T23:31:34.120Z,100129.75
2022-10-15T23:34:02.547Z,100133.41
2022-10-15T23:36:30.309Z,100129.94
2022-10-15T23:38:59.315Z,100122.19
2022-10-15T23:41:27.655Z,100123.03
2022-10-15T23:43:54.571Z,100132.81
2022-10-15T23:46:21.929Z,100135.66
2022-10-15T23:48:49.101Z,100134.84
2022-10-15T23:51:20.748Z,100125.03
2022-10-15T23:53:48.218Z,100118.50
2022-10-15T23:56:16.142Z,100125.63
2022-10-15T23:58:43.305Z,100130.94
